createdAt,value
2019-04-06T00:00:57.695Z,59.64
2019-04-06T00:03:27.619Z,60.46
2019-04-06T00:05:57.559Z,60.03
2019-04-06T00:08:27.594Z,59.37
2019-04-06T00:10:57.582Z,59.96
2019-04-06T00:13:27.556Z,59.70
2019-04-06T00:15:58.115Z,58.32
2019-04-06T00:18:27.200Z,57.32
2019-04-06T00:20:57.064Z,57.75
2019-04-06T00:23:27.051Z,58.32
2019-04-06T00:25:56.962Z,58.26
2019-04-06T00:28:27.060Z,57.47
2019-04-06T00:31:04.345Z,58.85
2019-04-06T00:33:34.279Z,58.39
2019-04-06T00:36:04.317Z,59.93
2019-04-06T00:38:34.481Z,60.17
2019-04-06T00:41:04.536Z,61.51
2019-04-06T00:43:35.733Z,62.53
2019-04-06T00:46:05.652Z,62.64
2019-04-06T00:48:35.641Z,63.08
2019-04-06T00:51:05.683Z,63.49
2019-04-06T00:53:35.796Z,62.11
2019-04-06T00:56:06.476Z,62.00
2019-04-06T00:58:36.404Z,62.78
2019-04-06T01:01:06.246Z,62.89
2019-04-06T01:03:36.243Z,63.61
2019-04-06T01:06:06.195Z,62.14
2019-04-06T01:08:36.253Z,61.52
2019-04-06T01:11:06.401Z,61.47
2019-04-06T01:13:37.865Z,62.71
2019-04-06T01:16:11.687Z,62.41
2019-04-06T01:18:46.355Z,61.22
2019-04-06T01:21:16.559Z,61.96
2019-04-06T01:23:49.266Z,62.79
2019-04-06T01:26:22.163Z,62.20
2019-04-06T01:28:55.794Z,60.00
2019-04-06T01:31:25.812Z,60.62
2019-04-06T01:33:55.764Z,60.91
2019-04-06T01:36:25.782Z,61.16
2019-04-06T01:38:55.815Z,60.92
2019-04-06T01:41:25.746Z,61.79
2019-04-06T01:43:55.790Z,62.30
2019-04-06T01:46:25.723Z,62.45
2019-04-06T01:48:55.669Z,61.98
2019-04-06T01:51:25.720Z,63.76
2019-04-06T01:53:55.728Z,62.39
2019-04-06T01:56:25.668Z,62.00
2019-04-06T01:58:55.703Z,63.32
2019-04-06T02:01:33.208Z,64.64
2019-04-06T02:04:03.249Z,64.94
2019-04-06T02:06:33.286Z,64.82
2019-04-06T02:09:05.051Z,65.83
2019-04-06T02:11:35.105Z,65.79
2019-04-06T02:14:05.237Z,65.74
2019-04-06T02:16:35.271Z,65.52
2019-04-06T02:19:05.486Z,65.81
2019-04-06T02:21:35.543Z,65.96
2019-04-06T02:24:05.583Z,65.29
2019-04-06T02:26:35.620Z,64.80
2019-04-06T02:29:05.656Z,64.29
2019-04-06T02:31:37.129Z,64.42
2019-04-06T02:34:23.975Z,64.38
2019-04-06T02:37:10.850Z,64.88
2019-04-06T02:39:42.422Z,65.61
2019-04-06T02:42:26.225Z,65.80
2019-04-06T02:44:56.296Z,66.60
2019-04-06T02:47:26.406Z,66.67
2019-04-06T02:49:56.479Z,67.52
2019-04-06T02:52:26.525Z,67.46
2019-04-06T02:54:56.562Z,68.69
2019-04-06T02:57:28.024Z,69.24
2019-04-06T02:59:59.596Z,69.98
2019-04-06T03:02:29.629Z,71.22
2019-04-06T03:05:00.682Z,72.16
2019-04-06T03:07:31.755Z,74.17
2019-04-06T03:10:01.959Z,72.46
2019-04-06T03:12:32.028Z,73.59
2019-04-06T03:15:02.034Z,73.84
2019-04-06T03:17:32.103Z,74.73
2019-04-06T03:20:02.050Z,76.06
2019-04-06T03:22:32.075Z,76.22
2019-04-06T03:25:02.108Z,76.18
2019-04-06T03:27:32.240Z,76.77
2019-04-06T03:30:02.424Z,76.02
2019-04-06T03:32:32.531Z,75.76
2019-04-06T03:35:02.645Z,75.90
2019-04-06T03:37:32.610Z,76.22
2019-04-06T03:40:02.526Z,75.80
2019-04-06T03:42:32.468Z,75.80
2019-04-06T03:45:02.769Z,75.38
2019-04-06T03:47:32.957Z,75.98
2019-04-06T03:50:03.087Z,75.16
2019-04-06T03:52:33.123Z,75.69
2019-04-06T03:55:03.183Z,74.96
2019-04-06T03:57:33.923Z,74.73
2019-04-06T04:00:04.013Z,74.36
2019-04-06T04:02:33.983Z,74.89
2019-04-06T04:05:04.433Z,74.82
2019-04-06T04:07:33.681Z,74.94
2019-04-06T04:10:04.112Z,74.56
2019-04-06T04:12:33.242Z,74.26
2019-04-06T04:15:03.046Z,74.24
2019-04-06T04:17:32.984Z,73.64
2019-04-06T04:20:03.020Z,72.98
2019-04-06T04:22:34.961Z,72.43
2019-04-06T04:25:05.972Z,72.44
2019-04-06T04:27:36.142Z,71.95
2019-04-06T04:30:08.379Z,71.43
2019-04-06T04:32:38.350Z,71.45
2019-04-06T04:35:09.475Z,71.00
2019-04-06T04:37:39.570Z,71.23
2019-04-06T04:40:11.276Z,70.20
2019-04-06T04:42:41.229Z,69.33
2019-04-06T04:45:11.346Z,68.60
2019-04-06T04:47:41.460Z,68.18
2019-04-06T04:50:11.643Z,68.12
2019-04-06T04:52:41.675Z,67.37
2019-04-06T04:55:12.439Z,67.51
2019-04-06T04:57:44.997Z,67.40
2019-04-06T05:00:14.320Z,66.65
2019-04-06T05:02:44.274Z,66.07
2019-04-06T05:05:14.348Z,65.64
2019-04-06T05:07:44.256Z,65.45
2019-04-06T05:10:14.391Z,64.81
2019-04-06T05:12:44.325Z,65.11
2019-04-06T05:15:29.435Z,65.04
2019-04-06T05:17:59.361Z,64.96
2019-04-06T05:20:29.276Z,63.93
2019-04-06T05:22:59.303Z,63.60
2019-04-06T05:25:29.436Z,63.38
2019-04-06T05:27:59.485Z,62.51
2019-04-06T05:30:29.512Z,61.67
2019-04-06T05:32:59.554Z,60.19
2019-04-06T05:35:29.631Z,59.55
2019-04-06T05:38:00.236Z,60.38
2019-04-06T05:40:29.481Z,58.82
2019-04-06T05:42:59.384Z,57.95
2019-04-06T05:45:29.352Z,58.00
2019-04-06T05:47:59.371Z,57.10
2019-04-06T05:50:29.524Z,55.56
2019-04-06T05:52:59.440Z,55.45
2019-04-06T05:55:29.363Z,54.16
2019-04-06T05:58:03.918Z,53.10
2019-04-06T06:00:31.175Z,50.95
2019-04-06T06:03:01.119Z,50.31
2019-04-06T06:05:31.149Z,48.92
2019-04-06T06:08:01.256Z,47.62
2019-04-06T06:10:31.221Z,46.10
2019-04-06T06:13:01.267Z,45.04
2019-04-06T06:15:31.302Z,44.79
2019-04-06T06:18:01.346Z,44.93
2019-04-06T06:20:31.375Z,44.89
2019-04-06T06:23:01.304Z,44.53
2019-04-06T06:25:31.150Z,43.76
2019-04-06T06:28:01.072Z,40.29
2019-04-06T06:30:31.108Z,33.74
2019-04-06T06:33:01.074Z,29.07
2019-04-06T06:35:31.189Z,26.40
2019-04-06T06:38:01.131Z,24.16
2019-04-06T06:40:31.116Z,23.38
2019-04-06T06:43:01.197Z,22.10
2019-04-06T06:45:31.127Z,20.02
2019-04-06T06:48:01.174Z,20.46
2019-04-06T06:50:31.202Z,19.50
2019-04-06T06:53:01.216Z,18.72
2019-04-06T06:55:31.430Z,17.58
2019-04-06T06:58:01.477Z,17.07
2019-04-06T07:00:31.500Z,17.10
2019-04-06T07:03:02.529Z,16.93
2019-04-06T07:05:32.551Z,16.85
2019-04-06T07:08:02.579Z,16.08
2019-04-06T07:10:32.699Z,16.52
2019-04-06T07:13:02.669Z,16.36
2019-04-06T07:15:34.039Z,15.49
2019-04-06T07:18:03.937Z,16.29
2019-04-06T07:20:33.891Z,16.07
2019-04-06T07:23:03.937Z,15.39
2019-04-06T07:25:33.869Z,15.39
2019-04-06T07:28:03.898Z,15.33
2019-04-06T07:30:33.938Z,15.15
2019-04-06T07:33:03.870Z,15.64
2019-04-06T07:35:33.920Z,15.45
2019-04-06T07:38:04.061Z,14.18
2019-04-06T07:40:34.178Z,14.19
2019-04-06T07:43:03.462Z,14.00
2019-04-06T07:45:33.342Z,14.13
2019-04-06T07:48:03.384Z,13.78
2019-04-06T07:50:33.414Z,12.87
2019-04-06T07:53:03.456Z,12.59
2019-04-06T07:55:32.768Z,12.96
2019-04-06T07:58:02.930Z,12.93
2019-04-06T08:00:33.060Z,12.89
2019-04-06T08:03:02.999Z,13.23
2019-04-06T08:05:32.925Z,13.58
2019-04-06T08:08:02.861Z,13.89
2019-04-06T08:10:32.106Z,13.08
2019-04-06T08:13:01.905Z,12.49
2019-04-06T08:15:31.951Z,13.02
2019-04-06T08:18:01.984Z,12.78
2019-04-06T08:20:31.129Z,12.81
2019-04-06T08:23:01.037Z,12.71
2019-04-06T08:25:31.889Z,11.13
2019-04-06T08:28:01.828Z,10.83
2019-04-06T08:30:31.756Z,11.21
2019-04-06T08:33:01.921Z,10.94
2019-04-06T08:35:31.937Z,10.38
2019-04-06T08:38:01.869Z,10.59
2019-04-06T08:40:32.020Z,10.65
2019-04-06T08:43:02.051Z,10.62
2019-04-06T08:45:32.075Z,9.99
2019-04-06T08:48:02.171Z,9.89
2019-04-06T08:50:32.324Z,10.78
2019-04-06T08:53:02.409Z,10.56
2019-04-06T08:55:32.440Z,11.22
2019-04-06T08:58:02.468Z,11.15
2019-04-06T09:00:32.520Z,11.07
2019-04-06T09:03:02.572Z,10.91
2019-04-06T09:05:32.588Z,11.10
2019-04-06T09:08:02.521Z,10.80
2019-04-06T09:10:32.451Z,10.29
2019-04-06T09:13:02.631Z,9.92
2019-04-06T09:15:32.633Z,9.91
2019-04-06T09:18:02.565Z,10.06
2019-04-06T09:20:32.603Z,9.59
2019-04-06T09:23:02.739Z,9.73
2019-04-06T09:25:32.679Z,9.49
2019-04-06T09:28:02.603Z,9.84
2019-04-06T09:30:32.544Z,10.09
2019-04-06T09:33:02.583Z,11.24
2019-04-06T09:35:32.511Z,11.26
2019-04-06T09:38:02.459Z,11.86
2019-04-06T09:40:32.380Z,10.97
2019-04-06T09:43:02.325Z,11.61
2019-04-06T09:45:36.851Z,11.74
2019-04-06T09:48:11.186Z,11.41
2019-04-06T09:50:59.341Z,10.85
2019-04-06T09:53:47.908Z,10.01
2019-04-06T09:56:22.519Z,9.55
2019-04-06T09:59:09.573Z,10.53
2019-04-06T10:01:52.973Z,10.94
2019-04-06T10:04:24.537Z,11.92
2019-04-06T10:07:11.455Z,11.60
2019-04-06T10:09:59.488Z,10.83
2019-04-06T10:12:37.091Z,9.73
2019-04-06T10:15:27.101Z,9.62
2019-04-06T10:18:17.314Z,8.58
2019-04-06T10:21:07.302Z,9.63
2019-04-06T10:23:38.919Z,10.18
2019-04-06T10:26:26.848Z,11.14
2019-04-06T10:28:58.437Z,8.98
2019-04-06T10:31:32.960Z,8.65
2019-04-06T10:34:07.194Z,8.28
2019-04-06T10:36:47.881Z,8.02
2019-04-06T10:39:35.898Z,7.40
2019-04-06T10:42:07.551Z,7.37
2019-04-06T10:44:42.113Z,8.68
2019-04-06T10:47:16.776Z,9.02
2019-04-06T10:49:48.315Z,8.27
2019-04-06T10:52:29.094Z,7.85
2019-04-06T10:55:12.800Z,7.06
2019-04-06T10:57:59.550Z,6.98
2019-04-06T11:00:46.148Z,6.52
2019-04-06T11:03:32.959Z,6.75
2019-04-06T11:06:20.756Z,6.92
2019-04-06T11:08:58.358Z,6.12
2019-04-06T11:11:32.890Z,5.98
2019-04-06T11:14:16.784Z,6.18
2019-04-06T11:17:06.712Z,5.98
2019-04-06T11:19:38.779Z,5.64
2019-04-06T11:22:19.318Z,5.69
2019-04-06T11:24:53.770Z,5.53
2019-04-06T11:27:31.060Z,5.23
2019-04-06T11:30:14.288Z,5.50
2019-04-06T11:32:44.828Z,4.98
2019-04-06T11:35:19.323Z,4.58
2019-04-06T11:37:53.735Z,4.41
2019-04-06T11:40:34.291Z,4.60
2019-04-06T11:43:21.079Z,4.97
2019-04-06T11:45:58.687Z,4.88
2019-04-06T11:48:42.337Z,5.43
2019-04-06T11:51:32.510Z,5.67
2019-04-06T11:54:20.331Z,5.90
2019-04-06T11:57:07.252Z,5.75
2019-04-06T11:59:47.939Z,5.41
2019-04-06T12:02:22.750Z,5.22
2019-04-06T12:04:54.247Z,4.88
2019-04-06T12:07:42.158Z,5.09
2019-04-06T12:10:29.403Z,5.24
2019-04-06T12:13:03.672Z,5.11
2019-04-06T12:15:35.191Z,4.67
2019-04-06T12:18:06.765Z,4.77
2019-04-06T12:20:41.707Z,4.75
2019-04-06T12:23:16.303Z,4.49
2019-04-06T12:25:48.797Z,4.56
2019-04-06T12:28:23.293Z,4.64
2019-04-06T12:30:54.770Z,5.20
2019-04-06T12:33:32.659Z,4.50
2019-04-06T12:36:07.191Z,5.15
2019-04-06T12:38:48.792Z,4.91
2019-04-06T12:41:36.684Z,5.40
2019-04-06T12:44:24.663Z,5.09
2019-04-06T12:47:02.370Z,5.36
2019-04-06T12:49:33.951Z,5.18
2019-04-06T12:52:20.754Z,5.37
2019-04-06T12:54:52.324Z,6.48
2019-04-06T12:57:35.961Z,5.95
2019-04-06T13:00:25.432Z,5.91
2019-04-06T13:02:58.972Z,5.69
2019-04-06T13:05:33.214Z,5.43
2019-04-06T13:08:10.680Z,6.06
2019-04-06T13:10:52.885Z,5.78
2019-04-06T13:13:30.181Z,7.09
2019-04-06T13:16:04.713Z,7.30
2019-04-06T13:18:47.947Z,7.00
2019-04-06T13:21:22.399Z,6.99
2019-04-06T13:23:57.029Z,7.02
2019-04-06T13:26:28.632Z,7.26
2019-04-06T13:29:08.824Z,7.13
2019-04-06T13:31:46.151Z,7.68
2019-04-06T13:34:20.764Z,7.70
2019-04-06T13:36:52.375Z,8.13
2019-04-06T13:39:40.098Z,8.51
2019-04-06T13:42:26.747Z,9.37
2019-04-06T13:45:01.715Z,10.29
2019-04-06T13:47:36.753Z,10.27
2019-04-06T13:50:27.499Z,10.97
2019-04-06T13:53:00.909Z,9.92
2019-04-06T13:55:35.442Z,10.38
2019-04-06T13:58:13.258Z,10.68
2019-04-06T14:00:44.831Z,10.81
2019-04-06T14:03:16.693Z,11.68
2019-04-06T14:06:06.588Z,11.98
2019-04-06T14:08:44.412Z,12.28
2019-04-06T14:11:28.166Z,12.50
2019-04-06T14:14:02.482Z,12.59
2019-04-06T14:16:50.508Z,12.35
2019-04-06T14:19:28.580Z,12.83
2019-04-06T14:22:05.524Z,12.76
2019-04-06T14:24:49.458Z,12.74
2019-04-06T14:27:33.350Z,13.15
2019-04-06T14:30:21.286Z,13.64
2019-04-06T14:33:07.947Z,13.68
2019-04-06T14:35:42.290Z,13.70
2019-04-06T14:38:26.018Z,13.70
2019-04-06T14:41:16.468Z,14.04
2019-04-06T14:44:03.329Z,14.33
2019-04-06T14:46:34.895Z,14.57
2019-04-06T14:49:13.835Z,15.05
2019-04-06T14:51:56.042Z,15.61
2019-04-06T14:54:39.959Z,15.34
2019-04-06T14:57:17.490Z,15.83
2019-04-06T15:00:07.612Z,16.74
2019-04-06T15:02:39.180Z,17.31
2019-04-06T15:05:25.753Z,17.79
2019-04-06T15:07:57.569Z,17.85
2019-04-06T15:10:35.139Z,18.29
2019-04-06T15:13:09.995Z,18.38
2019-04-06T15:15:47.821Z,18.53
2019-04-06T15:18:35.256Z,18.42
2019-04-06T15:21:13.223Z,18.63
2019-04-06T15:23:53.802Z,19.34
2019-04-06T15:26:41.935Z,19.32
2019-04-06T15:29:16.395Z,20.15
2019-04-06T15:31:51.070Z,20.42
2019-04-06T15:34:37.616Z,20.66
2019-04-06T15:37:27.757Z,21.83
2019-04-06T15:40:11.335Z,23.33
2019-04-06T15:42:45.955Z,23.49
2019-04-06T15:45:17.837Z,24.31
2019-04-06T15:47:49.533Z,24.74
2019-04-06T15:50:36.233Z,25.02
2019-04-06T15:53:11.236Z,25.61
2019-04-06T15:55:52.101Z,26.13
2019-04-06T15:58:27.050Z,26.92
2019-04-06T16:01:04.985Z,27.56
2019-04-06T16:03:45.972Z,27.90
2019-04-06T16:06:34.450Z,28.23
2019-04-06T16:09:11.231Z,28.43
2019-04-06T16:11:48.649Z,29.35
2019-04-06T16:14:26.148Z,29.34
2019-04-06T16:17:00.574Z,29.20
2019-04-06T16:19:32.215Z,29.82
2019-04-06T16:22:04.550Z,30.40
2019-04-06T16:24:55.049Z,30.50
2019-04-06T16:27:29.678Z,30.83
2019-04-06T16:30:17.892Z,31.08
2019-04-06T16:32:52.237Z,31.54
2019-04-06T16:35:26.849Z,32.55
2019-04-06T16:38:07.782Z,32.65
2019-04-06T16:40:42.805Z,31.72
2019-04-06T16:43:17.239Z,32.67
2019-04-06T16:46:04.941Z,33.09
2019-04-06T16:48:45.946Z,33.35
2019-04-06T16:51:23.571Z,34.76
2019-04-06T16:53:59.246Z,34.19
2019-04-06T16:56:30.995Z,34.70
2019-04-06T16:59:19.240Z,36.89
2019-04-06T17:01:53.776Z,37.09
2019-04-06T17:04:35.176Z,37.51
2019-04-06T17:07:19.447Z,37.23
2019-04-06T17:10:03.270Z,39.04
2019-04-06T17:12:38.221Z,38.60
2019-04-06T17:15:19.492Z,37.77
2019-04-06T17:18:08.653Z,37.99
2019-04-06T17:20:58.936Z,39.96
2019-04-06T17:23:34.055Z,40.54
2019-04-06T17:26:08.842Z,41.23
2019-04-06T17:28:40.513Z,40.41
2019-04-06T17:31:14.979Z,40.29
2019-04-06T17:33:49.637Z,40.76
2019-04-06T17:36:28.822Z,41.15
2019-04-06T17:39:03.158Z,42.00
2019-04-06T17:41:52.097Z,43.19
2019-04-06T17:44:40.463Z,43.16
2019-04-06T17:47:12.128Z,43.68
2019-04-06T17:49:52.856Z,44.16
2019-04-06T17:52:26.682Z,44.64
2019-04-06T17:55:16.817Z,44.63
2019-04-06T17:58:04.248Z,45.09
2019-04-06T18:00:53.942Z,44.79
2019-04-06T18:03:25.483Z,44.67
2019-04-06T18:06:03.314Z,45.14
2019-04-06T18:08:50.005Z,45.13
2019-04-06T18:11:21.543Z,45.14
2019-04-06T18:13:52.192Z,45.06
2019-04-06T18:16:24.229Z,44.67
2019-04-06T18:18:54.237Z,45.08
2019-04-06T18:21:24.575Z,45.43
2019-04-06T18:23:54.570Z,45.49
2019-04-06T18:26:24.488Z,45.40
2019-04-06T18:28:55.132Z,45.21
2019-04-06T18:31:25.923Z,45.32
2019-04-06T18:33:55.836Z,45.54
2019-04-06T18:36:27.643Z,45.56
2019-04-06T18:39:02.004Z,46.76
2019-04-06T18:41:33.614Z,46.41
2019-04-06T18:44:03.510Z,47.29
2019-04-06T18:46:34.702Z,47.12
2019-04-06T18:49:04.713Z,46.89
2019-04-06T18:51:35.016Z,48.57
2019-04-06T18:54:05.336Z,48.60
2019-04-06T18:56:35.686Z,48.93
2019-04-06T18:59:06.172Z,49.61
2019-04-06T19:01:36.224Z,49.42
2019-04-06T19:04:06.590Z,48.42
2019-04-06T19:06:36.617Z,49.79
2019-04-06T19:09:20.687Z,48.49
2019-04-06T19:11:41.945Z,48.38
2019-04-06T19:14:12.439Z,46.77
2019-04-06T19:16:42.480Z,46.46
2019-04-06T19:19:12.620Z,47.27
2019-04-06T19:21:44.486Z,48.03
2019-04-06T19:24:15.537Z,46.12
2019-04-06T19:26:47.760Z,46.87
2019-04-06T19:29:18.297Z,46.00
2019-04-06T19:31:48.335Z,46.30
2019-04-06T19:34:19.353Z,46.47
2019-04-06T19:36:49.868Z,45.98
2019-04-06T19:39:19.179Z,46.17
2019-04-06T19:41:51.073Z,44.75
2019-04-06T19:44:21.611Z,44.88
2019-04-06T19:46:51.300Z,45.75
2019-04-06T19:49:23.053Z,44.79
2019-04-06T19:51:53.245Z,44.06
2019-04-06T19:54:23.255Z,44.56
2019-04-06T19:56:53.185Z,44.59
2019-04-06T19:59:23.129Z,44.83
2019-04-06T20:01:54.645Z,45.06
2019-04-06T20:04:24.439Z,45.00
2019-04-06T20:06:54.472Z,44.42
2019-04-06T20:09:24.501Z,44.84
2019-04-06T20:12:04.314Z,44.75
2019-04-06T20:14:26.310Z,44.07
2019-04-06T20:16:56.467Z,44.35
2019-04-06T20:19:27.414Z,43.35
2019-04-06T20:21:57.798Z,43.40
2019-04-06T20:24:28.374Z,43.38
2019-04-06T20:26:58.885Z,44.22
2019-04-06T20:29:28.993Z,45.43
2019-04-06T20:31:59.811Z,44.29
2019-04-06T20:34:31.312Z,45.00
2019-04-06T20:37:02.482Z,43.47
2019-04-06T20:39:33.686Z,45.17
2019-04-06T20:42:05.258Z,44.60
2019-04-06T20:44:35.146Z,45.32
2019-04-06T20:47:05.090Z,46.67
2019-04-06T20:49:35.215Z,45.03
2019-04-06T20:52:05.159Z,44.38
2019-04-06T20:54:35.227Z,45.10
2019-04-06T20:57:05.389Z,45.29
2019-04-06T20:59:35.894Z,45.22
2019-04-06T21:02:05.673Z,44.28
2019-04-06T21:04:35.808Z,43.97
2019-04-06T21:07:05.787Z,44.39
2019-04-06T21:09:36.640Z,45.14
2019-04-06T21:12:06.856Z,45.01
2019-04-06T21:14:37.143Z,45.58
2019-04-06T21:17:07.012Z,45.46
2019-04-06T21:19:37.002Z,45.75
2019-04-06T21:22:07.030Z,45.65
2019-04-06T21:24:37.736Z,45.18
2019-04-06T21:27:07.818Z,45.91
2019-04-06T21:29:38.236Z,47.60
2019-04-06T21:32:08.423Z,47.34
2019-04-06T21:34:38.356Z,48.33
2019-04-06T21:37:08.536Z,47.53
2019-04-06T21:39:38.570Z,47.82
2019-04-06T21:42:08.562Z,47.82
2019-04-06T21:44:38.870Z,48.07
2019-04-06T21:47:09.048Z,48.51
2019-04-06T21:49:39.038Z,48.24
2019-04-06T21:52:09.013Z,47.96
2019-04-06T21:54:38.954Z,47.94
2019-04-06T21:57:09.313Z,48.36
2019-04-06T21:59:39.506Z,48.99
2019-04-06T22:02:09.567Z,48.94
2019-04-06T22:04:39.525Z,49.13
2019-04-06T22:07:09.834Z,49.49
2019-04-06T22:09:40.034Z,50.36
2019-04-06T22:12:10.019Z,50.68
2019-04-06T22:14:39.960Z,51.54
2019-04-06T22:17:10.198Z,51.28
2019-04-06T22:19:40.899Z,51.73
2019-04-06T22:22:11.119Z,52.95
2019-04-06T22:24:41.806Z,52.73
2019-04-06T22:27:11.091Z,53.14
2019-04-06T22:29:40.809Z,53.06
2019-04-06T22:32:10.740Z,53.13
2019-04-06T22:34:41.753Z,53.71
2019-04-06T22:37:12.781Z,54.36
2019-04-06T22:39:43.242Z,53.92
2019-04-06T22:42:12.700Z,53.72
2019-04-06T22:44:42.788Z,53.48
2019-04-06T22:47:12.929Z,54.92
2019-04-06T22:49:43.274Z,54.94
2019-04-06T22:52:13.359Z,54.75
2019-04-06T22:54:43.552Z,55.02
2019-04-06T22:57:13.655Z,55.90
2019-04-06T22:59:43.533Z,55.70
2019-04-06T23:02:13.527Z,55.68
2019-04-06T23:04:49.494Z,56.56
2019-04-06T23:07:18.914Z,54.85
2019-04-06T23:09:49.366Z,55.90
2019-04-06T23:12:19.439Z,56.26
2019-04-06T23:14:49.909Z,55.07
2019-04-06T23:17:19.610Z,55.96
2019-04-06T23:19:49.724Z,56.36
2019-04-06T23:22:19.758Z,56.65
2019-04-06T23:24:49.910Z,56.88
2019-04-06T23:27:20.490Z,56.81
2019-04-06T23:29:49.790Z,56.84
2019-04-06T23:32:20.360Z,56.67
2019-04-06T23:34:58.833Z,57.36
2019-04-06T23:37:22.227Z,57.80
2019-04-06T23:39:52.163Z,57.40
2019-04-06T23:42:22.095Z,58.00
2019-04-06T23:44:52.131Z,56.79
2019-04-06T23:47:22.068Z,57.54
2019-04-06T23:49:52.012Z,57.33
2019-04-06T23:52:22.136Z,58.16
2019-04-06T23:54:52.075Z,57.55
2019-04-06T23:57:22.224Z,58.14
2019-04-06T23:59:53.275Z,58.53
